Time;durP1;ratioP1;P1;durP2;ratioP2;P2;SDS_P1;SDS_P2;PMS_P1;PMS_P2;Temp;Humidity;BMP_temperature;BMP_pressure;BME280_temperature;BME280_humidity;BME280_pressure;Samples;Min_cycle;Max_cycle;Signal;HPM_P1;HPM_P2
2023/07/09 00:01:05;;;;;;;10.45;6.30;;;;;;;14.54;100.00;93543.28;2536701;23;20021;-85
2023/07/09 00:02:16;;;;;;;6.95;5.60;;;;;;;14.64;100.00;93548.78;2548519;23;20002;-85
2023/07/09 00:03:25;;;;;;;8.00;6.03;;;;;;;14.58;100.00;93546.63;2548516;23;20006;-86
2023/07/09 00:04:34;;;;;;;8.93;5.93;;;;;;;14.58;100.00;93543.19;2548337;23;20439;-85
2023/07/09 00:05:40;;;;;;;9.00;6.10;;;;;;;14.53;100.00;93541.78;2554168;23;20404;-85
2023/07/09 00:06:49;;;;;;;9.10;5.90;;;;;;;14.56;100.00;93546.28;2556662;23;20002;-85
2023/07/09 00:07:56;;;;;;;10.55;6.28;;;;;;;14.61;100.00;93553.81;2546866;23;20017;-86
2023/07/09 00:09:05;;;;;;;12.82;5.50;;;;;;;14.58;100.00;93543.19;2539480;23;20010;-86
2023/07/09 00:10:23;;;;;;;7.63;5.45;;;;;;;14.51;100.00;93546.09;2555702;23;20021;-85
2023/07/09 00:11:29;;;;;;;8.68;5.85;;;;;;;14.57;100.00;93544.34;2553792;23;20036;-86
2023/07/09 00:12:37;;;;;;;10.65;6.40;;;;;;;14.55;100.00;93547.50;2550184;23;20133;-86
2023/07/09 00:13:42;;;;;;;9.10;5.97;;;;;;;14.54;100.00;93542.53;2548951;23;20002;-87
2023/07/09 00:14:50;;;;;;;10.23;6.15;;;;;;;14.47;100.00;93545.41;2536942;23;20002;-87
2023/07/09 00:15:59;;;;;;;6.57;5.60;;;;;;;14.47;100.00;93554.22;2538003;23;20002;-86
2023/07/09 00:17:10;;;;;;;11.63;6.03;;;;;;;14.42;100.00;93548.63;2549717;23;20006;-85
2023/07/09 00:18:17;;;;;;;10.50;5.80;;;;;;;14.35;100.00;93554.97;2551758;23;20412;-85
2023/07/09 00:19:29;;;;;;;10.30;5.95;;;;;;;14.36;100.00;93551.13;2548430;23;20009;-86
2023/07/09 00:20:34;;;;;;;10.07;5.85;;;;;;;14.42;100.00;93548.63;2552062;23;20379;-86
2023/07/09 00:21:45;;;;;;;8.82;6.10;;;;;;;14.33;100.00;93549.28;2561251;23;20087;-85
2023/07/09 00:22:57;;;;;;;9.25;5.95;;;;;;;14.43;100.00;93550.88;2549244;23;20094;-85
2023/07/09 00:24:06;;;;;;;10.80;5.90;;;;;;;14.46;100.00;93546.59;2539606;23;20006;-86
2023/07/09 00:25:17;;;;;;;9.05;6.28;;;;;;;14.41;100.00;93549.81;2537860;23;20012;-86
2023/07/09 00:26:26;;;;;;;8.68;5.60;;;;;;;14.43;100.00;93544.75;2551382;23;20047;-86
2023/07/09 00:27:35;;;;;;;14.10;6.15;;;;;;;14.40;100.00;93549.06;2560430;23;20001;-86
2023/07/09 00:28:38;;;;;;;9.70;6.15;;;;;;;14.38;100.00;93548.00;2548323;23;20028;-85
2023/07/09 00:29:49;;;;;;;11.57;5.97;;;;;;;14.34;100.00;93548.09;2547709;23;20369;-85
2023/07/09 00:30:54;;;;;;;;;;;;;;;14.29;100.00;93548.63;2559529;23;20001;-86
2023/07/09 00:32:29;;;;;;;10.52;6.38;;;;;;;14.31;100.00;93547.03;2547160;23;19911;-85
2023/07/09 00:33:38;;;;;;;11.32;6.22;;;;;;;14.26;100.00;93552.16;2556803;23;20466;-85
2023/07/09 00:34:53;;;;;;;16.92;6.97;;;;;;;14.31;100.00;93557.00;2571627;23;20758;-85
2023/07/09 00:36:31;;;;;;;10.50;6.22;;;;;;;14.27;100.00;93551.00;2549314;23;20005;-86
2023/07/09 00:37:39;;;;;;;13.40;6.68;;;;;;;14.24;100.00;93546.47;2573937;22;20444;-86
2023/07/09 00:38:47;;;;;;;12.57;6.60;;;;;;;14.24;100.00;93547.22;2559141;23;20012;-86
2023/07/09 00:39:54;;;;;;;8.65;5.65;;;;;;;14.19;100.00;93549.69;2537622;23;20365;-85
2023/07/09 00:41:09;;;;;;;10.63;6.07;;;;;;;14.21;100.00;93550.75;2537226;23;20037;-86
2023/07/09 00:42:21;;;;;;;9.57;6.40;;;;;;;14.11;100.00;93547.19;2540366;23;20014;-85
2023/07/09 00:43:38;;;;;;;10.40;6.22;;;;;;;14.16;100.00;93547.84;2549244;23;20458;-85
2023/07/09 00:44:45;;;;;;;10.93;6.22;;;;;;;14.09;100.00;93554.94;2542038;23;20002;-85
2023/07/09 00:46:27;;;;;;;8.43;6.38;;;;;;;14.16;100.00;93551.28;2549286;23;20008;-86
2023/07/09 00:47:54;;;;;;;10.82;6.55;;;;;;;14.16;100.00;93556.66;2555330;23;20001;-85
2023/07/09 00:49:08;;;;;;;14.45;6.88;;;;;;;14.21;100.00;93558.06;2552537;23;20005;-85
2023/07/09 00:50:52;;;;;;;11.10;5.72;;;;;;;14.16;100.00;93550.53;2540705;23;20060;-86
2023/07/09 00:52:02;;;;;;;8.75;6.30;;;;;;;14.18;100.00;93553.53;2554848;23;20005;-85
2023/07/09 00:53:18;;;;;;;;;;;;;;;14.10;100.00;93548.38;2538813;23;20002;-85
2023/07/09 00:54:36;;;;;;;14.65;6.85;;;;;;;14.15;100.00;93549.78;2552925;23;20325;-87
2023/07/09 00:55:48;;;;;;;12.02;6.88;;;;;;;14.01;100.00;93552.88;2551284;23;20084;-85
2023/07/09 00:56:57;;;;;;;10.50;6.25;;;;;;;14.03;100.00;93551.25;2550967;23;20029;-85
2023/07/09 00:58:13;;;;;;;12.23;6.22;;;;;;;13.90;100.00;93563.91;2549277;23;20006;-86
2023/07/09 00:59:28;;;;;;;10.63;6.75;;;;;;;13.97;100.00;93554.91;2540526;23;20013;-86
2023/07/09 01:00:46;;;;;;;11.60;6.68;;;;;;;13.92;100.00;93558.88;2552214;23;20012;-86
2023/07/09 01:01:56;;;;;;;9.73;6.75;;;;;;;13.95;100.00;93552.63;2550308;23;20006;-86
2023/07/09 01:03:05;;;;;;;9.63;6.10;;;;;;;13.98;100.00;93551.78;2538417;23;20028;-85
2023/07/09 01:04:16;;;;;;;8.90;6.53;;;;;;;13.91;100.00;93559.28;2548931;23;20060;-85
2023/07/09 01:05:26;;;;;;;10.68;6.00;;;;;;;13.93;100.00;93562.31;2551672;23;20012;-86
2023/07/09 01:06:52;;;;;;;;;;;;;;;13.93;100.00;93556.94;2560914;23;20001;-86
2023/07/09 01:08:02;;;;;;;15.15;6.97;;;;;;;13.97;100.00;93552.22;2552141;23;19904;-84
2023/07/09 01:09:10;;;;;;;7.90;6.22;;;;;;;13.91;100.00;93560.03;2537224;23;20002;-86
2023/07/09 01:10:20;;;;;;;14.02;6.53;;;;;;;13.91;100.00;93556.59;2537258;23;20010;-86
2023/07/09 01:11:29;;;;;;;11.20;6.53;;;;;;;13.93;100.00;93554.25;2536695;23;20057;-85
2023/07/09 01:12:36;;;;;;;11.35;6.35;;;;;;;13.91;100.00;93554.66;2546863;23;20009;-86
2023/07/09 01:13:45;;;;;;;11.13;6.57;;;;;;;13.89;100.00;93561.66;2547764;23;20005;-86
2023/07/09 01:14:58;;;;;;;10.60;6.35;;;;;;;13.86;100.00;93555.19;2536993;23;20411;-85
2023/07/09 01:15:59;;;;;;;10.77;6.40;;;;;;;13.89;100.00;93562.41;2558530;23;20044;-86
2023/07/09 01:17:04;;;;;;;10.73;6.50;;;;;;;13.89;100.00;93545.53;2555499;23;20017;-87
2023/07/09 01:18:05;;;;;;;10.43;6.95;;;;;;;13.92;100.00;93550.06;2556969;23;20027;-86
2023/07/09 01:19:16;;;;;;;9.70;6.35;;;;;;;13.82;100.00;93549.16;2546032;23;20364;-85
2023/07/09 01:20:24;;;;;;;11.23;6.95;;;;;;;13.83;100.00;93559.50;2538264;23;20365;-86
2023/07/09 01:21:32;;;;;;;9.77;6.65;;;;;;;13.82;100.00;93557.22;2537044;23;20285;-85
2023/07/09 01:22:39;;;;;;;11.80;6.50;;;;;;;13.88;100.00;93554.78;2549134;23;20005;-85
2023/07/09 01:23:47;;;;;;;9.90;6.50;;;;;;;13.82;100.00;93555.28;2547804;23;20045;-85
2023/07/09 01:25:03;;;;;;;9.73;6.30;;;;;;;13.78;100.00;93560.03;2536968;23;20045;-86
2023/07/09 01:26:15;;;;;;;13.05;6.80;;;;;;;13.78;100.00;93556.56;2539846;23;20085;-86
2023/07/09 01:27:28;;;;;;;9.40;6.60;;;;;;;13.70;100.00;93557.94;2537311;23;20021;-85
2023/07/09 01:28:36;;;;;;;14.70;7.10;;;;;;;13.76;100.00;93550.88;2537445;23;20041;-85
2023/07/09 01:29:48;;;;;;;12.45;6.70;;;;;;;13.80;100.00;93554.97;2535385;23;20484;-86
2023/07/09 01:30:57;;;;;;;10.02;6.63;;;;;;;13.68;100.00;93560.28;2537663;23;20009;-85
2023/07/09 01:32:06;;;;;;;11.30;7.20;;;;;;;13.62;100.00;93556.63;2536117;23;20001;-85
2023/07/09 01:33:18;;;;;;;9.48;6.53;;;;;;;13.64;100.00;93548.88;2536048;23;20389;-85
2023/07/09 01:34:30;;;;;;;13.73;6.50;;;;;;;13.67;100.00;93554.16;2546633;23;20012;-85
2023/07/09 01:35:44;;;;;;;12.20;6.85;;;;;;;13.67;100.00;93546.09;2535717;23;20111;-85
2023/07/09 01:36:51;;;;;;;14.25;6.85;;;;;;;13.67;100.00;93548.03;2536265;23;20081;-86
2023/07/09 01:38:04;;;;;;;11.55;6.53;;;;;;;13.71;100.00;93551.38;2537212;23;20077;-85
2023/07/09 01:39:14;;;;;;;10.18;6.78;;;;;;;13.69;100.00;93545.66;2524533;23;20441;-85
2023/07/09 01:40:27;;;;;;;10.23;6.60;;;;;;;13.62;100.00;93548.56;2523030;23;20365;-86
2023/07/09 01:41:37;;;;;;;9.10;6.72;;;;;;;13.59;100.00;93548.22;2536297;23;20097;-86
2023/07/09 01:42:46;;;;;;;10.43;6.60;;;;;;;13.56;100.00;93549.09;2533355;23;20041;-86
2023/07/09 01:43:56;;;;;;;10.32;7.00;;;;;;;13.53;100.00;93544.56;2522810;23;20050;-85
2023/07/09 01:45:04;;;;;;;11.20;7.18;;;;;;;13.47;100.00;93546.22;2545231;23;20009;-85
2023/07/09 01:46:16;;;;;;;13.43;6.53;;;;;;;13.60;100.00;93549.72;2543325;23;20020;-86
2023/07/09 01:47:27;;;;;;;11.52;6.78;;;;;;;13.47;100.00;93546.22;2536307;23;20036;-85
2023/07/09 01:48:40;;;;;;;13.93;7.15;;;;;;;13.39;100.00;93552.97;2546298;23;20020;-85
2023/07/09 01:49:50;;;;;;;13.65;6.55;;;;;;;13.47;100.00;93548.16;2533831;23;20088;-86
2023/07/09 01:50:57;;;;;;;;;;;;;;;13.49;100.00;93541.19;2536323;23;20010;-86
2023/07/09 01:52:09;;;;;;;10.00;6.65;;;;;;;13.45;100.00;93539.78;2545057;23;19935;-86
2023/07/09 01:53:23;;;;;;;11.70;7.10;;;;;;;13.47;100.00;93545.47;2533511;23;20093;-86
2023/07/09 01:54:37;;;;;;;11.02;7.13;;;;;;;13.46;100.00;93544.72;2549880;23;20013;-85
2023/07/09 01:55:46;;;;;;;12.30;6.80;;;;;;;13.48;100.00;93547.00;2544453;23;20218;-85
2023/07/09 01:57:01;;;;;;;14.75;7.80;;;;;;;13.35;100.00;93546.94;2544859;23;20025;-86
2023/07/09 01:58:10;;;;;;;12.25;6.90;;;;;;;13.39;100.00;93549.53;2535065;23;20426;-86
2023/07/09 01:59:20;;;;;;;16.10;6.85;;;;;;;13.32;100.00;93545.09;2535446;23;20052;-87
2023/07/09 02:00:26;;;;;;;;;;;;;;;13.33;100.00;93551.97;2534164;23;20006;-86
2023/07/09 02:01:36;;;;;;;12.63;6.88;;;;;;;13.38;100.00;93556.06;2545433;23;19959;-86
2023/07/09 02:02:48;;;;;;;12.05;7.25;;;;;;;13.42;100.00;93549.44;2543560;23;20005;-85
2023/07/09 02:03:55;;;;;;;11.20;7.28;;;;;;;13.39;100.00;93552.19;2535609;23;20006;-86
2023/07/09 02:05:06;;;;;;;11.25;7.57;;;;;;;13.38;100.00;93548.00;2532978;23;20365;-86
2023/07/09 02:06:19;;;;;;;15.35;7.60;;;;;;;13.40;100.00;93554.47;2523461;23;20017;-85
2023/07/09 02:07:29;;;;;;;10.75;6.95;;;;;;;13.41;100.00;93555.22;2524944;23;20013;-86
2023/07/09 02:08:39;;;;;;;13.25;7.20;;;;;;;13.42;100.00;93546.00;2533244;23;20025;-86
2023/07/09 02:09:43;;;;;;;16.10;7.70;;;;;;;13.31;100.00;93547.03;2533609;23;20006;-86
2023/07/09 02:10:52;;;;;;;13.25;7.30;;;;;;;13.31;100.00;93548.97;2545468;23;20005;-85
2023/07/09 02:11:59;;;;;;;12.38;7.60;;;;;;;13.32;100.00;93548.53;2546917;23;20006;-86
2023/07/09 02:13:09;;;;;;;11.75;7.05;;;;;;;13.34;100.00;93550.78;2543684;23;20104;-86
2023/07/09 02:14:19;;;;;;;12.02;7.32;;;;;;;13.26;100.00;93550.22;2547347;23;20092;-86
2023/07/09 02:15:30;;;;;;;12.88;7.57;;;;;;;13.26;100.00;93557.53;2556237;23;20005;-85
2023/07/09 02:16:41;;;;;;;13.43;7.45;;;;;;;13.27;100.00;93554.41;2545753;23;20009;-86
2023/07/09 02:17:52;;;;;;;15.82;7.50;;;;;;;13.28;100.00;93555.91;2546384;23;20369;-85
2023/07/09 02:19:01;;;;;;;11.15;7.68;;;;;;;13.25;100.00;93556.00;2533585;23;20060;-86
2023/07/09 02:36:18;;;;;;;16.08;7.85;;;;;;;13.11;100.00;93562.44;2593264;22;19918;-86
2023/07/09 02:37:28;;;;;;;15.60;8.00;;;;;;;13.19;100.00;93563.03;2575152;23;20016;-86
2023/07/09 02:38:36;;;;;;;12.07;7.47;;;;;;;13.23;100.00;93553.00;2561757;23;20091;-86
2023/07/09 02:39:48;;;;;;;13.02;7.60;;;;;;;13.19;100.00;93554.97;2574171;23;20039;-87
2023/07/09 02:40:55;;;;;;;15.60;8.13;;;;;;;13.16;100.00;93556.56;2576699;23;20473;-87
2023/07/09 02:42:01;;;;;;;11.82;8.35;;;;;;;13.08;100.00;93556.00;2558461;23;20013;-86
2023/07/09 02:47:36;;;;;;;15.85;8.07;;;;;;;13.02;100.00;93560.34;2584555;23;20038;-85
2023/07/09 02:48:40;;;;;;;13.82;8.98;;;;;;;13.06;100.00;93557.59;2562459;23;20009;-86
2023/07/09 02:49:47;;;;;;;11.85;7.88;;;;;;;13.02;100.00;93559.59;2574961;22;20004;-86
2023/07/09 02:51:05;;;;;;;12.18;7.65;;;;;;;12.93;100.00;93567.50;2573209;23;20462;-86
2023/07/09 02:52:16;;;;;;;13.68;7.82;;;;;;;12.92;100.00;93564.06;2577243;23;20011;-85
2023/07/09 02:53:24;;;;;;;16.67;8.45;;;;;;;12.94;100.00;93563.63;2572812;23;20027;-85
2023/07/09 02:54:32;;;;;;;12.73;7.78;;;;;;;12.97;100.00;93565.47;2564003;23;20427;-86
2023/07/09 02:55:40;;;;;;;11.18;8.30;;;;;;;12.93;100.00;93567.50;2574449;23;20001;-87
2023/07/09 02:56:47;;;;;;;12.55;7.53;;;;;;;12.90;100.00;93561.03;2561232;23;20028;-85
2023/07/09 02:57:55;;;;;;;15.77;7.97;;;;;;;12.89;100.00;93564.88;2561500;23;20016;-86
2023/07/09 02:59:03;;;;;;;9.93;7.18;;;;;;;12.83;100.00;93567.31;2550924;23;20061;-86
2023/07/09 03:00:12;;;;;;;12.07;7.70;;;;;;;12.87;100.00;93571.84;2561681;23;20427;-87
2023/07/09 03:01:21;;;;;;;13.98;7.50;;;;;;;12.85;100.00;93572.25;2562041;23;20427;-87
2023/07/09 03:02:30;;;;;;;13.68;7.45;;;;;;;12.92;100.00;93574.03;2564286;23;20100;-86
2023/07/09 03:03:35;;;;;;;12.27;8.00;;;;;;;12.84;100.00;93570.75;2562132;23;20515;-86
2023/07/09 03:04:42;;;;;;;12.98;7.93;;;;;;;12.90;100.00;93573.69;2550197;23;20037;-86
2023/07/09 03:05:51;;;;;;;13.57;8.07;;;;;;;12.89;100.00;93577.53;2546993;23;20436;-86
2023/07/09 03:07:00;;;;;;;14.98;7.90;;;;;;;12.88;100.00;93582.16;2551393;23;20009;-86
2023/07/09 03:08:09;;;;;;;11.70;7.43;;;;;;;12.84;100.00;93579.56;2563567;23;20011;-85
2023/07/09 03:09:14;;;;;;;12.52;8.05;;;;;;;12.77;100.00;93578.94;2574407;23;20004;-86
2023/07/09 03:10:25;;;;;;;12.02;8.07;;;;;;;12.82;100.00;93583.84;2585063;23;20075;-86
2023/07/09 03:11:36;;;;;;;15.15;7.70;;;;;;;12.78;100.00;93586.59;2586572;22;20000;-86
2023/07/09 03:12:43;;;;;;;10.70;7.13;;;;;;;12.82;100.00;93586.53;2598574;22;20233;-85
2023/07/09 03:13:52;;;;;;;13.35;7.22;;;;;;;12.78;100.00;93583.16;2584566;23;20024;-87
2023/07/09 03:14:58;;;;;;;13.52;8.00;;;;;;;12.77;100.00;93584.31;2561929;23;20056;-87
2023/07/09 03:16:06;;;;;;;14.23;8.15;;;;;;;12.79;100.00;93580.06;2549924;23;20039;-85
2023/07/09 03:17:15;;;;;;;13.80;8.05;;;;;;;12.81;100.00;93580.38;2561216;23;20005;-86
2023/07/09 03:18:21;;;;;;;13.82;8.38;;;;;;;12.83;100.00;93579.97;2562947;23;20060;-86
2023/07/09 03:19:28;;;;;;;13.88;8.50;;;;;;;12.78;100.00;93583.91;2571680;23;20019;-85
2023/07/09 03:20:34;;;;;;;14.05;9.00;;;;;;;12.76;100.00;93588.19;2561907;23;20099;-86
2023/07/09 03:21:44;;;;;;;18.05;8.93;;;;;;;12.67;100.00;93575.34;2571967;23;20000;-87
2023/07/09 03:22:49;;;;;;;12.27;8.75;;;;;;;12.70;100.00;93579.88;2574659;23;20065;-87
2023/07/09 03:23:59;;;;;;;15.27;9.20;;;;;;;12.64;100.00;93581.53;2572456;23;20011;-86
2023/07/09 03:25:06;;;;;;;14.75;8.70;;;;;;;12.63;100.00;93576.59;2573712;23;20087;-85
2023/07/09 03:26:15;;;;;;;15.77;8.57;;;;;;;12.60;100.00;93581.63;2572998;23;20058;-87
2023/07/09 03:27:21;;;;;;;15.80;8.60;;;;;;;12.58;100.00;93581.28;2574230;23;20343;-86
2023/07/09 03:28:28;;;;;;;12.00;8.18;;;;;;;12.65;100.00;93580.38;2546936;23;20352;-86
2023/07/09 03:29:35;;;;;;;12.85;8.00;;;;;;;12.62;100.00;93577.78;2547076;23;20632;-87
2023/07/09 03:30:49;;;;;;;12.48;8.07;;;;;;;12.59;100.00;93582.03;2539162;23;20013;-86
2023/07/09 03:31:55;;;;;;;12.40;8.38;;;;;;;12.48;100.00;93578.84;2564563;23;20444;-86
2023/07/09 03:33:14;;;;;;;13.15;7.28;;;;;;;12.53;100.00;93579.09;2570691;23;20001;-86
2023/07/09 03:34:41;;;;;;;14.13;8.30;;;;;;;12.60;100.00;93578.19;2571741;23;20008;-86
2023/07/09 03:36:04;;;;;;;12.18;7.40;;;;;;;12.57;100.00;93579.03;2574634;23;20422;-86
2023/07/09 03:39:18;;;;;;;14.25;7.80;;;;;;;12.62;100.00;93575.84;2565875;23;20008;-87
2023/07/09 03:40:30;;;;;;;17.25;8.13;;;;;;;12.54;100.00;93580.59;2548821;23;20009;-87
2023/07/09 03:43:34;;;;;;;11.10;7.72;;;;;;;12.55;100.00;93584.78;2529600;23;20010;-86
2023/07/09 03:45:00;;;;;;;13.43;8.25;;;;;;;12.60;100.00;93587.00;2519299;23;20014;-85
2023/07/09 03:46:12;;;;;;;15.60;7.93;;;;;;;12.60;100.00;93591.59;2561605;23;20004;-86
2023/07/09 03:47:19;;;;;;;13.88;8.57;;;;;;;12.51;100.00;93588.72;2559397;23;20009;-86
2023/07/09 03:49:01;;;;;;;16.30;8.00;;;;;;;12.56;100.00;93582.88;2543773;23;20010;-86
2023/07/09 03:52:25;;;;;;;15.15;7.80;;;;;;;12.41;100.00;93587.78;2564116;23;20016;-86
2023/07/09 03:54:00;;;;;;;15.82;8.05;;;;;;;12.37;100.00;93597.81;2556608;23;20013;-86
2023/07/09 03:55:07;;;;;;;14.77;7.80;;;;;;;12.33;100.00;93591.78;2538525;23;20108;-85
2023/07/09 03:56:09;;;;;;;15.32;7.75;;;;;;;12.40;100.00;93588.97;2534257;23;20198;-85
2023/07/09 03:57:17;;;;;;;14.88;8.45;;;;;;;12.38;100.00;93588.63;2533189;23;20456;-86
2023/07/09 03:58:23;;;;;;;15.07;8.40;;;;;;;12.40;100.00;93591.63;2547589;23;20001;-85
2023/07/09 03:59:31;;;;;;;13.30;7.93;;;;;;;12.37;100.00;93595.13;2557044;23;20504;-86
2023/07/09 04:00:37;;;;;;;17.08;7.72;;;;;;;12.38;100.00;93594.00;2546420;23;20009;-86
2023/07/09 04:01:45;;;;;;;15.38;8.68;;;;;;;12.40;100.00;93591.63;2547166;23;19998;-86
2023/07/09 04:02:53;;;;;;;18.00;10.02;;;;;;;12.42;100.00;93600.00;2556937;23;20016;-86
2023/07/09 04:03:56;;;;;;;16.60;9.85;;;;;;;12.43;100.00;93595.44;2547723;23;20386;-86
2023/07/09 04:05:01;;;;;;;20.63;10.40;;;;;;;12.42;100.00;93599.25;2545642;23;20519;-86
2023/07/09 04:06:08;;;;;;;16.88;9.38;;;;;;;12.43;100.00;93598.84;2547102;23;20032;-85
2023/07/09 04:07:16;;;;;;;16.88;9.68;;;;;;;12.46;100.00;93599.94;2558355;23;20423;-87
2023/07/09 04:08:25;;;;;;;19.63;10.35;;;;;;;12.46;100.00;93600.69;2546136;23;20842;-86
2023/07/09 04:09:33;;;;;;;22.55;12.07;;;;;;;12.50;100.00;93600.63;2547731;23;20036;-86
2023/07/09 04:10:40;;;;;;;18.00;10.70;;;;;;;12.55;100.00;93603.56;2570528;23;20008;-86
2023/07/09 04:11:48;;;;;;;20.90;11.38;;;;;;;12.54;100.00;93596.69;2568895;23;20435;-86
2023/07/09 04:12:57;;;;;;;22.02;12.02;;;;;;;12.55;100.00;93600.13;2556421;23;20009;-86
2023/07/09 04:14:07;;;;;;;28.50;14.10;;;;;;;12.57;100.00;93601.22;2535602;23;20059;-86
2023/07/09 04:15:15;;;;;;;31.55;15.68;;;;;;;12.59;100.00;93596.19;2548006;23;20005;-86
2023/07/09 04:16:18;;;;;;;26.85;15.27;;;;;;;12.59;100.00;93598.88;2558370;23;20055;-85
2023/07/09 04:17:25;;;;;;;27.05;14.73;;;;;;;12.61;100.00;93601.16;2558016;23;20005;-86
2023/07/09 04:18:32;;;;;;;23.38;13.60;;;;;;;12.60;100.00;93603.09;2546354;23;20001;-86
2023/07/09 04:19:40;;;;;;;23.83;13.18;;;;;;;12.57;100.00;93597.81;2547143;23;20536;-86
2023/07/09 04:20:49;;;;;;;25.98;13.13;;;;;;;12.62;100.00;93599.22;2570055;23;20013;-86
2023/07/09 04:21:57;;;;;;;30.70;14.15;;;;;;;12.58;100.00;93596.63;2571738;23;19996;-86
2023/07/09 04:23:02;;;;;;;31.65;16.13;;;;;;;12.60;100.00;93605.78;2557865;23;20057;-86
2023/07/09 04:24:11;;;;;;;38.08;16.65;;;;;;;12.65;100.00;93604.53;2535741;23;20002;-86
2023/07/09 04:25:20;;;;;;;32.30;16.08;;;;;;;12.59;100.00;93598.13;2537020;23;20093;-86
2023/07/09 04:26:27;;;;;;;36.58;15.50;;;;;;;12.66;100.00;93605.28;2559655;23;20052;-86
2023/07/09 04:27:37;;;;;;;35.00;15.13;;;;;;;12.73;100.00;93605.09;2559424;23;20032;-86
2023/07/09 04:28:43;;;;;;;27.73;13.70;;;;;;;12.72;100.00;93601.66;2559329;23;20009;-85
2023/07/09 04:29:51;;;;;;;26.98;14.18;;;;;;;12.76;100.00;93601.59;2569303;23;20032;-87
2023/07/09 04:31:07;;;;;;;26.90;12.88;;;;;;;12.81;100.00;93601.84;2546913;23;20032;-87
2023/07/09 04:32:16;;;;;;;21.10;12.07;;;;;;;12.85;100.00;93602.53;2551000;23;20005;-86
2023/07/09 04:33:25;;;;;;;21.23;11.18;;;;;;;12.84;100.00;93601.03;2558523;23;20001;-86
2023/07/09 04:34:33;;;;;;;21.02;10.88;;;;;;;12.84;100.00;93597.59;2558483;23;20008;-86
2023/07/09 04:35:43;;;;;;;22.73;10.90;;;;;;;12.84;100.00;93603.69;2558491;23;20011;-85
2023/07/09 04:36:52;;;;;;;26.23;11.50;;;;;;;12.88;100.00;93597.50;2568376;23;20013;-85
2023/07/09 04:38:02;;;;;;;21.20;10.50;;;;;;;12.90;100.00;93600.50;2547475;23;20075;-85
2023/07/09 04:39:09;;;;;;;21.27;10.82;;;;;;;12.97;100.00;93603.78;2560610;23;20051;-86
2023/07/09 04:40:17;;;;;;;20.95;10.73;;;;;;;12.95;100.00;93603.47;2570088;23;20009;-86
2023/07/09 04:41:23;;;;;;;19.52;10.90;;;;;;;12.97;100.00;93603.78;2581840;23;20004;-87
2023/07/09 04:42:30;;;;;;;19.83;10.48;;;;;;;12.97;100.00;93603.78;2569197;23;20024;-86
2023/07/09 04:43:38;;;;;;;19.83;10.85;;;;;;;12.95;100.00;93603.47;2548008;23;20006;-87
2023/07/09 04:44:46;;;;;;;20.83;10.85;;;;;;;13.01;100.00;93601.78;2558714;23;20005;-86
2023/07/09 04:45:53;;;;;;;25.83;11.57;;;;;;;13.05;100.00;93605.16;2549033;23;20009;-85
2023/07/09 04:47:02;;;;;;;16.75;10.32;;;;;;;13.11;100.00;93608.06;2559726;23;20435;-86
2023/07/09 04:48:09;;;;;;;18.13;10.68;;;;;;;13.08;100.00;93593.59;2571246;23;20463;-87
2023/07/09 04:49:15;;;;;;;20.45;10.80;;;;;;;13.09;100.00;93605.06;2558718;23;20055;-86
2023/07/09 04:50:19;;;;;;;17.70;9.90;;;;;;;13.15;100.00;93602.63;2546750;23;20476;-86
2023/07/09 04:51:27;;;;;;;17.08;9.55;;;;;;;13.23;100.00;93598.63;2558378;23;20007;-87
2023/07/09 04:52:34;;;;;;;16.63;8.55;;;;;;;13.24;100.00;93597.44;2560454;23;20009;-86
2023/07/09 04:56:17;;;;;;;15.30;9.23;;;;;;;13.44;100.00;93602.75;2582557;23;20369;-86
2023/07/09 04:57:25;;;;;;;17.80;8.88;;;;;;;13.46;100.00;93603.81;2568289;23;20015;-86
2023/07/09 04:58:32;;;;;;;18.13;9.57;;;;;;;13.46;100.00;93593.06;2557582;23;20039;-87
2023/07/09 04:59:36;;;;;;;16.55;9.60;;;;;;;13.55;100.00;93595.16;2559632;23;20323;-85
2023/07/09 05:00:47;;;;;;;18.88;8.90;;;;;;;13.56;100.00;93600.13;2569506;23;20494;-85
2023/07/09 05:01:54;;;;;;;15.50;9.23;;;;;;;13.60;100.00;93597.31;2558298;23;20008;-86
2023/07/09 05:03:03;;;;;;;15.57;9.27;;;;;;;13.64;100.00;93597.97;2559276;23;20033;-87
2023/07/09 05:04:12;;;;;;;15.90;9.75;;;;;;;13.69;100.00;93604.78;2581350;23;20091;-86
2023/07/09 05:05:21;;;;;;;17.52;9.40;;;;;;;13.72;100.00;93602.00;2559173;23;20083;-85
2023/07/09 05:06:28;;;;;;;13.50;8.88;;;;;;;13.73;100.00;93598.13;2547806;23;20001;-87
2023/07/09 05:07:31;;;;;;;17.95;9.95;;;;;;;13.75;100.00;93603.09;2559455;23;20435;-86
2023/07/09 05:08:33;;;;;;;17.05;9.45;;;;;;;13.81;100.00;93598.72;2566659;23;20001;-87
2023/07/09 05:09:34;;;;;;;15.10;9.52;;;;;;;13.85;100.00;93596.69;2554005;23;20012;-85
2023/07/09 05:10:47;;;;;;;20.45;10.40;;;;;;;13.86;100.00;93590.88;2554603;23;20000;-85
2023/07/09 05:11:51;;;;;;;18.27;9.02;;;;;;;13.88;100.00;93597.78;2565721;23;20024;-86
2023/07/09 05:13:03;;;;;;;16.70;9.63;;;;;;;13.94;100.00;93598.75;2574289;23;20015;-87
2023/07/09 05:14:04;;;;;;;17.00;9.65;;;;;;;13.98;100.00;93602.09;2573041;23;20013;-85
2023/07/09 05:15:06;;;;;;;17.35;10.25;;;;;;;14.01;100.00;93595.88;2557965;23;20012;-86
2023/07/09 05:16:07;;;;;;;15.70;9.43;;;;;;;14.06;100.00;93596.13;2545934;23;20057;-86
2023/07/09 05:17:10;;;;;;;14.57;9.10;;;;;;;14.12;100.00;93590.97;2557783;23;20009;-85
2023/07/09 05:18:20;;;;;;;15.60;9.18;;;;;;;14.16;100.00;93599.69;2546718;23;20040;-86
2023/07/09 05:19:33;;;;;;;23.40;9.40;;;;;;;14.22;100.00;93597.97;2561609;23;20005;-86
2023/07/09 05:20:34;;;;;;;18.38;10.45;;;;;;;14.29;100.00;93597.03;2559206;23;20432;-86
2023/07/09 05:21:41;;;;;;;17.42;9.35;;;;;;;14.35;100.00;93593.41;2557307;23;20043;-85
2023/07/09 05:22:42;;;;;;;15.30;9.60;;;;;;;14.40;100.00;93596.72;2570629;23;20009;-86
2023/07/09 05:24:01;;;;;;;17.02;9.75;;;;;;;14.46;100.00;93595.00;2556092;23;20012;-86
2023/07/09 05:25:02;;;;;;;18.63;9.68;;;;;;;14.51;100.00;93603.34;2563733;23;20007;-85
2023/07/09 05:26:04;;;;;;;15.82;9.43;;;;;;;14.54;100.00;93596.34;2556406;23;20009;-86
2023/07/09 05:27:05;;;;;;;13.70;8.95;;;;;;;14.59;100.00;93599.25;2556144;23;20005;-87
2023/07/09 05:28:06;;;;;;;14.93;9.38;;;;;;;14.63;100.00;93598.41;2568909;23;20005;-86
2023/07/09 05:29:10;;;;;;;21.60;9.82;;;;;;;14.63;100.00;93599.16;2580946;23;20023;-85
2023/07/09 05:30:12;;;;;;;21.08;10.07;;;;;;;14.70;100.00;93603.56;2580532;23;20216;-87
2023/07/09 05:31:13;;;;;;;21.98;10.85;;;;;;;14.72;100.00;93601.97;2568777;23;20032;-86
2023/07/09 05:32:18;;;;;;;17.38;10.20;;;;;;;14.78;100.00;93604.84;2568016;23;20451;-86
2023/07/09 05:33:24;;;;;;;16.13;10.32;;;;;;;14.84;100.00;93593.13;2547265;23;20313;-86
2023/07/09 05:34:25;;;;;;;16.95;10.25;;;;;;;14.89;100.00;93599.91;2544801;23;20025;-85
2023/07/09 05:35:27;;;;;;;21.30;10.75;;;;;;;14.94;100.00;93594.00;2543341;23;20025;-86
2023/07/09 05:36:29;;;;;;;17.63;10.23;;;;;;;15.01;100.00;93593.78;2563712;23;20290;-86
2023/07/09 05:37:30;;;;;;;19.00;10.23;;;;;;;15.08;100.00;93590.84;2555860;23;20020;-86
2023/07/09 05:38:43;;;;;;;18.42;10.40;;;;;;;15.11;100.00;93595.38;2544259;23;20090;-86
2023/07/09 05:39:44;;;;;;;22.83;11.90;;;;;;;15.19;100.00;93592.44;2548579;23;20009;-87
2023/07/09 05:40:46;;;;;;;18.73;9.95;;;;;;;15.23;100.00;93591.19;2543313;23;20025;-86
2023/07/09 05:41:48;;;;;;;17.67;10.27;;;;;;;15.29;100.00;93600.19;2543521;23;20519;-86
2023/07/09 05:42:49;;;;;;;21.95;9.77;;;;;;;15.33;100.00;93594.72;2544586;23;20140;-86
2023/07/09 05:43:52;;;;;;;18.63;10.68;;;;;;;15.36;100.00;93591.13;2568554;23;20004;-86
2023/07/09 05:44:55;;;;;;;20.15;10.05;;;;;;;15.43;100.00;93593.59;2580587;23;20019;-87
2023/07/09 05:45:57;;;;;;;21.73;10.52;;;;;;;15.48;100.00;93593.03;2557055;23;20002;-86
2023/07/09 05:47:00;;;;;;;19.23;10.88;;;;;;;15.53;100.00;93597.13;2579464;22;20391;-86
2023/07/09 05:48:04;;;;;;;19.00;10.95;;;;;;;15.57;100.00;93592.38;2568220;23;20012;-86